Time;durP1;ratioP1;P1;durP2;ratioP2;P2;SDS_P1;SDS_P2;PMS_P1;PMS_P2;Temp;Humidity;BMP_temperature;BMP_pressure;BME280_temperature;BME280_humidity;BME280_pressure;Samples;Min_cycle;Max_cycle;Signal;HPM_P1;HPM_P2
2023/01/02 00:01:39;;;;;;;16.65;9.57;;;;;;;9.99;100.00;100984.66;5066741;28;20056;-81
2023/01/02 00:04:04;;;;;;;21.35;8.48;;;;;;;10.00;100.00;100980.31;5074369;28;20036;-81
2023/01/02 00:06:37;;;;;;;17.48;8.73;;;;;;;9.98;100.00;100982.97;5072982;28;20036;-80
2023/01/02 00:09:04;;;;;;;20.77;9.10;;;;;;;10.03;100.00;100988.94;5069213;28;20112;-81
2023/01/02 00:11:30;;;;;;;17.17;9.02;;;;;;;9.97;100.00;100976.03;5067255;28;20017;-81
2023/01/02 00:13:55;;;;;;;15.80;8.65;;;;;;;9.99;100.00;100984.66;5057841;28;20039;-81
2023/01/02 00:16:20;;;;;;;21.38;9.40;;;;;;;9.94;100.00;100964.81;5081683;28;20034;-81
2023/01/02 00:18:46;;;;;;;17.30;8.95;;;;;;;9.99;100.00;100979.47;5056123;28;20056;-81
2023/01/02 00:21:11;;;;;;;19.35;9.57;;;;;;;9.96;100.00;100978.66;5069016;28;20021;-81
2023/01/02 00:23:37;;;;;;;18.88;9.48;;;;;;;9.98;100.00;100974.28;5070766;28;20031;-80
2023/01/02 00:26:02;;;;;;;25.85;10.00;;;;;;;9.95;100.00;100969.16;5071813;28;20024;-81
2023/01/02 00:28:27;;;;;;;18.05;9.60;;;;;;;9.90;100.00;100956.19;5068498;28;20032;-81
2023/01/02 00:30:53;;;;;;;16.90;9.60;;;;;;;9.96;100.00;100969.09;5069230;28;20025;-81
2023/01/02 00:33:18;;;;;;;21.30;10.25;;;;;;;9.92;100.00;100962.25;5079561;28;20032;-81
2023/01/02 00:35:43;;;;;;;20.05;10.35;;;;;;;9.82;100.00;100951.13;5075695;28;20019;-81
2023/01/02 00:38:09;;;;;;;19.27;9.98;;;;;;;9.95;100.00;100964.78;5072408;28;20472;-81
2023/01/02 00:40:34;;;;;;;19.83;10.57;;;;;;;9.94;100.00;100960.47;5066180;28;20036;-81
2023/01/02 00:43:00;;;;;;;19.65;9.52;;;;;;;9.93;100.00;100956.13;5061909;28;20581;-81
2023/01/02 00:45:26;;;;;;;20.80;9.90;;;;;;;9.93;100.00;100948.31;5068933;28;20028;-81
2023/01/02 00:47:51;;;;;;;15.05;9.23;;;;;;;9.98;100.00;100954.31;5058308;28;20027;-81
2023/01/02 00:50:17;;;;;;;22.42;9.38;;;;;;;9.97;100.00;100952.59;5072351;28;20023;-81
2023/01/02 00:52:42;;;;;;;17.33;9.68;;;;;;;9.98;100.00;100951.72;5068392;28;20067;-81
2023/01/02 00:55:08;;;;;;;16.15;8.77;;;;;;;9.90;100.00;100932.75;5054567;28;20025;-81
2023/01/02 00:57:33;;;;;;;21.05;9.00;;;;;;;9.97;100.00;100944.78;5067047;28;20032;-81
2023/01/02 00:59:59;;;;;;;15.65;8.55;;;;;;;10.01;100.00;100936.03;5072303;28;20050;-81
2023/01/02 01:02:24;;;;;;;17.75;7.97;;;;;;;10.05;100.00;100936.81;5059490;28;20025;-82
2023/01/02 01:04:49;;;;;;;15.88;8.50;;;;;;;10.05;100.00;100927.25;5069142;28;20029;-81
2023/01/02 01:07:15;;;;;;;14.90;7.97;;;;;;;10.07;100.00;100941.13;5061963;28;20068;-81
2023/01/02 01:09:40;;;;;;;16.08;8.13;;;;;;;10.09;100.00;100935.88;5059712;28;20099;-81
2023/01/02 01:12:05;;;;;;;15.88;7.00;;;;;;;10.11;100.00;100931.50;5070910;28;20103;-81
2023/01/02 01:14:31;;;;;;;19.10;8.38;;;;;;;10.11;100.00;100926.28;5063274;28;20431;-80
2023/01/02 01:16:58;;;;;;;20.50;7.88;;;;;;;10.12;100.00;100927.13;5063452;28;20036;-81
2023/01/02 01:19:23;;;;;;;14.55;7.47;;;;;;;10.17;100.00;100918.34;5060929;28;20468;-81
2023/01/02 01:21:49;;;;;;;18.77;7.28;;;;;;;10.22;100.00;100926.06;5068924;28;20082;-81
2023/01/02 01:24:14;;;;;;;20.45;8.85;;;;;;;10.22;100.00;100923.44;5071576;28;20059;-81
2023/01/02 01:26:39;;;;;;;17.17;7.70;;;;;;;10.28;100.00;100939.84;5070535;28;20424;-81
2023/01/02 01:29:05;;;;;;;19.20;7.57;;;;;;;10.25;100.00;100928.59;5063550;28;20466;-81
2023/01/02 01:31:30;;;;;;;21.42;7.90;;;;;;;10.28;100.00;100925.97;5058818;28;20365;-81
2023/01/02 01:33:55;;;;;;;15.95;8.45;;;;;;;10.32;100.00;100932.81;5065191;28;20025;-81
2023/01/02 01:36:23;;;;;;;17.30;7.68;;;;;;;10.32;100.00;100931.06;5064658;28;20503;-81
2023/01/02 01:38:49;;;;;;;19.42;7.28;;;;;;;10.35;100.00;100929.28;5075544;28;20060;-82
2023/01/02 01:41:19;;;;;;;15.52;7.20;;;;;;;10.36;100.00;100939.69;5065333;28;20035;-82
2023/01/02 01:43:53;;;;;;;15.18;7.95;;;;;;;10.30;100.00;100924.19;5066454;28;20386;-81
2023/01/02 01:46:24;;;;;;;14.70;7.47;;;;;;;10.37;100.00;100932.75;5074581;28;20028;-81
2023/01/02 01:49:01;;;;;;;18.45;7.85;;;;;;;10.39;100.00;100933.53;5068721;28;20471;-80
2023/01/02 01:51:28;;;;;;;22.98;8.30;;;;;;;10.37;100.00;100933.59;5069111;28;20024;-80
2023/01/02 01:54:04;;;;;;;17.48;7.80;;;;;;;10.38;100.00;100943.13;5061421;28;20024;-80
2023/01/02 01:56:31;;;;;;;15.88;7.47;;;;;;;10.39;100.00;100957.00;5070048;28;20115;-81
2023/01/02 01:58:57;;;;;;;19.70;7.63;;;;;;;10.44;100.00;100955.16;5069885;28;20388;-81
2023/01/02 02:01:22;;;;;;;20.17;8.05;;;;;;;10.43;100.00;100954.31;5072277;28;20032;-81
2023/01/02 02:03:49;;;;;;;19.98;7.90;;;;;;;10.43;100.00;100943.91;5061543;28;20029;-81
2023/01/02 02:06:16;;;;;;;18.17;7.82;;;;;;;10.44;100.00;100944.75;5058602;28;20041;-81
2023/01/02 02:08:51;;;;;;;16.23;7.82;;;;;;;10.45;100.00;100951.66;5057417;28;20071;-80
2023/01/02 02:11:17;;;;;;;17.08;7.70;;;;;;;10.46;100.00;100948.16;5069884;28;20027;-81
2023/01/02 02:13:43;;;;;;;19.08;7.57;;;;;;;10.45;100.00;100949.91;5068650;28;20029;-81
2023/01/02 02:16:14;;;;;;;20.88;7.68;;;;;;;10.48;100.00;100955.06;5067694;28;20020;-80
2023/01/02 02:18:58;;;;;;;16.90;6.93;;;;;;;10.47;100.00;100953.34;5065175;28;20044;-81
2023/01/02 02:21:53;;;;;;;15.85;7.65;;;;;;;10.47;100.00;100949.91;5062714;28;20024;-80
2023/01/02 02:24:36;;;;;;;20.23;7.68;;;;;;;10.49;100.00;100953.31;5075144;28;20024;-81
2023/01/02 02:27:19;;;;;;;16.95;7.30;;;;;;;10.50;100.00;100958.50;5076954;28;20032;-81
2023/01/02 02:30:15;;;;;;;14.50;6.90;;;;;;;10.51;100.00;100956.75;5070763;28;20380;-80
2023/01/02 02:32:54;;;;;;;16.73;7.13;;;;;;;10.49;100.00;100950.69;5067162;28;20043;-81
2023/01/02 02:35:57;;;;;;;16.67;7.38;;;;;;;10.50;100.00;100952.44;5057694;28;20032;-81
2023/01/02 02:38:34;;;;;;;17.63;7.65;;;;;;;10.50;100.00;100962.88;5070369;28;20028;-81
2023/01/02 02:41:14;;;;;;;17.30;8.20;;;;;;;10.49;100.00;100958.53;5070790;28;20067;-81
2023/01/02 02:44:02;;;;;;;11.48;7.10;;;;;;;10.46;100.00;100964.69;5063598;28;20028;-81
2023/01/02 02:46:58;;;;;;;14.25;7.03;;;;;;;10.45;100.00;100944.69;5067733;28;20113;-81
2023/01/02 02:49:29;;;;;;;15.90;6.88;;;;;;;10.51;100.00;100951.53;5069991;28;20044;-81
2023/01/02 02:52:04;;;;;;;20.83;8.45;;;;;;;10.46;100.00;100954.25;5068845;28;20412;-81
2023/01/02 02:54:36;;;;;;;19.60;7.60;;;;;;;10.47;100.00;100950.75;5074025;28;20028;-81
2023/01/02 02:57:03;;;;;;;18.00;7.72;;;;;;;10.48;100.00;100952.47;5072438;28;20029;-81
2023/01/02 02:59:29;;;;;;;13.05;7.22;;;;;;;10.48;100.00;100951.59;5071722;28;20051;-80
2023/01/02 03:01:54;;;;;;;18.88;7.45;;;;;;;10.51;100.00;100951.53;5062310;28;20039;-81
2023/01/02 03:04:21;;;;;;;17.75;7.47;;;;;;;10.50;100.00;100955.03;5072531;28;20043;-81
2023/01/02 03:07:05;;;;;;;18.10;7.68;;;;;;;10.49;100.00;100951.56;5065452;28;20128;-81
2023/01/02 03:09:50;;;;;;;16.13;7.25;;;;;;;10.48;100.00;100951.59;5069254;28;20020;-80
2023/01/02 03:12:35;;;;;;;15.05;7.28;;;;;;;10.47;100.00;100950.75;5035338;28;20122;-81
2023/01/02 03:15:17;;;;;;;17.08;8.13;;;;;;;10.43;100.00;100932.59;5072344;28;20028;-81
2023/01/02 03:18:07;;;;;;;14.55;7.55;;;;;;;10.49;100.00;100948.09;5072773;28;20487;-81
2023/01/02 03:20:39;;;;;;;19.60;7.82;;;;;;;10.46;100.00;100938.63;5069669;28;20086;-81
2023/01/02 03:23:11;;;;;;;17.70;8.20;;;;;;;10.44;100.00;100940.38;5069443;28;20043;-81
2023/01/02 03:25:36;;;;;;;20.48;8.25;;;;;;;10.42;100.00;100929.13;5073188;28;20352;-82
2023/01/02 03:28:05;;;;;;;15.45;7.32;;;;;;;10.47;100.00;100945.53;5071355;28;20016;-80
2023/01/02 03:30:34;;;;;;;16.98;6.97;;;;;;;10.49;100.00;100937.66;5060073;28;20108;-80
2023/01/02 03:33:24;;;;;;;16.35;7.32;;;;;;;10.47;100.00;100945.53;5068490;28;20086;-81
2023/01/02 03:35:54;;;;;;;18.42;7.30;;;;;;;10.45;100.00;100942.09;5073621;28;20054;-81
2023/01/02 03:38:37;;;;;;;16.48;7.50;;;;;;;10.43;100.00;100949.09;5073316;28;20093;-81
2023/01/02 03:41:17;;;;;;;18.05;7.90;;;;;;;10.49;100.00;100956.78;5071749;28;20035;-81
2023/01/02 03:43:44;;;;;;;18.02;7.60;;;;;;;10.49;100.00;100956.78;5074437;28;20057;-81
2023/01/02 03:46:33;;;;;;;16.00;7.40;;;;;;;10.47;100.00;100955.09;5069412;28;20406;-81
2023/01/02 03:49:05;;;;;;;13.95;7.93;;;;;;;10.48;100.00;100960.28;5070429;28;20032;-80
2023/01/02 03:51:31;;;;;;;16.15;7.30;;;;;;;10.45;100.00;100947.31;5071745;28;20036;-80
2023/01/02 03:53:58;;;;;;;15.05;7.28;;;;;;;10.43;100.00;100967.34;5054333;28;20017;-81
2023/01/02 03:56:45;;;;;;;14.43;7.50;;;;;;;10.47;100.00;100970.75;5069742;28;20020;-81
2023/01/02 03:59:40;;;;;;;16.45;7.63;;;;;;;10.47;100.00;100971.59;5058455;28;20020;-81
2023/01/02 04:02:10;;;;;;;12.45;6.50;;;;;;;10.48;100.00;100973.31;5069285;28;20032;-81
2023/01/02 04:04:57;;;;;;;17.55;7.35;;;;;;;10.47;100.00;100971.59;5067456;28;20389;-81
2023/01/02 04:07:45;;;;;;;17.48;7.22;;;;;;;10.49;100.00;100972.41;5065675;28;20036;-81
2023/01/02 04:10:13;;;;;;;13.93;6.95;;;;;;;10.44;100.00;100971.66;5063686;28;20047;-81
2023/01/02 04:12:42;;;;;;;13.95;6.82;;;;;;;10.43;100.00;100959.53;5062727;28;20042;-81
2023/01/02 04:15:12;;;;;;;12.95;7.50;;;;;;;10.50;100.00;100971.53;5071950;28;20044;-80
2023/01/02 04:17:46;;;;;;;13.98;7.53;;;;;;;10.48;100.00;100975.06;5071820;28;20127;-81
2023/01/02 04:20:29;;;;;;;17.02;7.90;;;;;;;10.49;100.00;100969.81;5066974;28;20029;-81
2023/01/02 04:23:01;;;;;;;15.18;7.15;;;;;;;10.48;100.00;100972.44;5057563;28;20472;-80
2023/01/02 04:25:36;;;;;;;20.57;6.93;;;;;;;10.45;100.00;100988.16;5058474;28;20025;-81
2023/01/02 04:28:16;;;;;;;17.98;7.85;;;;;;;10.47;100.00;100994.22;5060265;28;20051;-80
2023/01/02 04:30:48;;;;;;;13.45;7.18;;;;;;;10.40;100.00;100983.06;5068421;28;20029;-80
2023/01/02 04:33:15;;;;;;;22.00;8.43;;;;;;;10.44;100.00;101002.94;5072672;28;20031;-81
2023/01/02 04:35:40;;;;;;;22.42;7.25;;;;;;;10.44;100.00;100986.44;5072173;28;20020;-81
2023/01/02 04:38:10;;;;;;;17.33;7.13;;;;;;;10.40;100.00;100984.78;5073223;28;20039;-81
2023/01/02 04:40:36;;;;;;;15.38;7.55;;;;;;;10.45;100.00;100998.59;5072669;28;20029;-81
2023/01/02 04:43:17;;;;;;;18.38;8.25;;;;;;;10.42;100.00;100994.28;5067563;28;20032;-80
2023/01/02 04:45:42;;;;;;;18.85;8.13;;;;;;;10.39;100.00;100991.75;5065543;28;20021;-80
2023/01/02 04:48:07;;;;;;;15.15;7.20;;;;;;;10.39;100.00;100994.34;5065525;28;20380;-81
2023/01/02 04:50:33;;;;;;;15.80;7.63;;;;;;;10.45;100.00;101006.41;5068146;28;20074;-81
2023/01/02 04:52:58;;;;;;;19.05;7.50;;;;;;;10.44;100.00;101004.69;5072667;28;20029;-81
2023/01/02 04:55:23;;;;;;;14.55;7.30;;;;;;;10.40;100.00;100996.09;5060993;28;20020;-81
2023/01/02 04:57:49;;;;;;;17.67;6.78;;;;;;;10.34;100.00;100996.19;5071138;28;20452;-81
2023/01/02 05:00:14;;;;;;;18.92;6.93;;;;;;;10.41;100.00;101010.81;5058388;28;20029;-81
2023/01/02 05:02:40;;;;;;;15.02;7.18;;;;;;;10.42;100.00;101014.28;5072340;28;20103;-81
2023/01/02 05:05:07;;;;;;;17.67;7.88;;;;;;;10.44;100.00;101020.34;5067046;28;20037;-81
2023/01/02 05:07:33;;;;;;;17.88;8.07;;;;;;;10.39;100.00;101017.78;5066003;28;20044;-81
2023/01/02 05:09:58;;;;;;;17.65;7.68;;;;;;;10.40;100.00;101022.16;5051388;28;20112;-81
2023/01/02 05:12:23;;;;;;;17.33;7.80;;;;;;;10.39;100.00;101016.94;5056119;28;20388;-81
2023/01/02 05:14:49;;;;;;;15.68;6.70;;;;;;;10.36;100.00;101015.25;5070607;28;20451;-81
2023/01/02 05:17:14;;;;;;;16.33;7.25;;;;;;;10.41;100.00;101018.63;5067696;28;20559;-81
2023/01/02 05:19:39;;;;;;;14.60;5.78;;;;;;;10.36;100.00;101010.03;5070223;28;20028;-81
2023/01/02 05:24:48;;;;;;;16.27;6.97;;;;;;;10.40;100.00;101026.47;5063422;28;20047;-81
2023/01/02 05:27:14;;;;;;;12.55;5.45;;;;;;;10.35;100.00;101029.19;5058108;28;20108;-81
2023/01/02 05:29:39;;;;;;;12.63;5.82;;;;;;;10.35;100.00;101023.13;5068742;28;20119;-81
2023/01/02 05:32:05;;;;;;;9.32;5.28;;;;;;;10.38;100.00;101038.69;5063204;28;20772;-82
2023/01/02 05:34:30;;;;;;;17.17;6.03;;;;;;;10.38;100.00;101043.91;5063331;28;20075;-81
2023/01/02 05:36:55;;;;;;;9.70;5.40;;;;;;;10.39;100.00;101045.63;5055838;28;20033;-81
2023/01/02 05:39:20;;;;;;;9.40;5.90;;;;;;;10.37;100.00;101047.41;5057613;28;20531;-81
2023/01/02 05:41:46;;;;;;;14.23;5.53;;;;;;;10.31;100.00;101043.16;5064916;28;20047;-81
2023/01/02 05:44:11;;;;;;;11.25;5.45;;;;;;;10.38;100.00;101059.53;5067656;28;20028;-81
2023/01/02 05:46:37;;;;;;;11.07;5.47;;;;;;;10.39;100.00;101069.06;5060211;28;20504;-81
2023/01/02 05:49:07;;;;;;;15.43;5.47;;;;;;;10.37;100.00;101074.31;5067611;28;20464;-81
2023/01/02 05:51:32;;;;;;;13.55;5.80;;;;;;;10.35;100.00;101059.59;5063364;28;20024;-81
2023/01/02 05:53:58;;;;;;;10.05;5.28;;;;;;;10.43;100.00;101084.63;5057019;28;20411;-81
2023/01/02 05:56:26;;;;;;;11.68;5.43;;;;;;;10.40;100.00;101076.00;5064856;28;20035;-81
2023/01/02 05:58:51;;;;;;;12.35;5.40;;;;;;;10.36;100.00;101067.38;5066528;28;20118;-81
2023/01/02 06:01:25;;;;;;;9.93;5.93;;;;;;;10.42;100.00;101085.50;5067132;28;20051;-82
2023/01/02 06:03:54;;;;;;;12.93;6.07;;;;;;;10.41;100.00;101065.56;5062961;28;20029;-81
2023/01/02 06:06:21;;;;;;;13.23;5.40;;;;;;;10.41;100.00;101072.50;5065752;28;20040;-81
2023/01/02 06:08:47;;;;;;;10.48;5.55;;;;;;;10.44;100.00;101090.72;5066287;28;20028;-81
2023/01/02 06:11:12;;;;;;;14.60;5.60;;;;;;;10.38;100.00;101081.25;5069262;28;20024;-81
2023/01/02 06:13:38;;;;;;;12.13;5.85;;;;;;;10.43;100.00;101095.06;5065448;28;20028;-81
2023/01/02 06:16:05;;;;;;;11.90;5.25;;;;;;;10.41;100.00;101091.63;5054999;28;20526;-81
2023/01/02 06:18:32;;;;;;;14.52;6.07;;;;;;;10.41;100.00;101107.25;5063362;28;20037;-82
2023/01/02 06:20:59;;;;;;;20.60;5.85;;;;;;;10.42;100.00;101119.38;5059782;28;20023;-82
2023/01/02 06:23:25;;;;;;;30.80;6.50;;;;;;;10.38;100.00;101120.34;5063851;28;20039;-82
2023/01/02 06:25:50;;;;;;;19.25;7.22;;;;;;;10.38;100.00;101133.38;5065260;28;20045;-83
2023/01/02 06:28:16;;;;;;;14.02;5.40;;;;;;;10.34;100.00;101139.53;5067189;28;20074;-83
2023/01/02 06:30:41;;;;;;;11.40;5.70;;;;;;;10.34;100.00;101167.34;5073424;28;20020;-82
2023/01/02 06:33:06;;;;;;;7.82;5.50;;;;;;;10.15;100.00;101167.59;5075250;28;20024;-82
2023/01/02 06:35:31;;;;;;;5.60;3.50;;;;;;;9.88;100.00;101183.69;5074048;28;20024;-83
2023/01/02 06:37:57;;;;;;;2.40;1.88;;;;;;;9.59;100.00;101191.03;5061217;28;20083;-82
2023/01/02 06:40:22;;;;;;;1.75;1.52;;;;;;;9.39;100.00;101190.44;5063215;28;20060;-82
2023/01/02 06:42:47;;;;;;;3.08;1.80;;;;;;;9.20;100.00;101179.41;5065045;28;20444;-81
2023/01/02 06:45:13;;;;;;;4.30;1.85;;;;;;;9.08;100.00;101202.94;5070184;28;20074;-82
2023/01/02 06:47:38;;;;;;;3.05;1.70;;;;;;;9.05;100.00;101216.84;5072023;28;20023;-81
2023/01/02 06:50:04;;;;;;;3.80;1.52;;;;;;;8.99;100.00;101218.66;5070728;28;20031;-81
2023/01/02 06:52:29;;;;;;;2.03;1.30;;;;;;;8.83;100.00;101207.56;5068584;28;20071;-81
2023/01/02 06:54:54;;;;;;;2.28;1.13;;;;;;;8.80;100.00;101225.81;5072121;28;20016;-81
2023/01/02 06:57:20;;;;;;;0.85;0.73;;;;;;;8.61;100.00;101210.38;5065288;28;20071;-81
2023/01/02 06:59:45;;;;;;;2.72;1.23;;;;;;;8.60;100.00;101239.84;5068065;28;20469;-82
2023/01/02 07:02:12;;;;;;;1.58;0.90;;;;;;;8.49;100.00;101241.66;5068761;28;20384;-81
2023/01/02 07:04:37;;;;;;;1.50;1.00;;;;;;;8.45;100.00;101255.56;5069663;28;20457;-81
2023/01/02 07:07:03;;;;;;;1.67;1.20;;;;;;;8.43;100.00;101265.09;5072203;28;20047;-81
2023/01/02 07:09:28;;;;;;;3.35;1.58;;;;;;;8.35;100.00;101265.13;5067432;28;20055;-81
2023/01/02 07:11:54;;;;;;;2.58;1.83;;;;;;;8.40;100.00;101285.91;5071211;28;20028;-81
2023/01/02 07:14:19;;;;;;;2.47;1.90;;;;;;;8.36;100.00;101292.81;5070335;28;20032;-81
2023/01/02 07:16:44;;;;;;;2.20;2.00;;;;;;;8.36;100.00;101291.97;5071379;28;20031;-81
2023/01/02 07:19:10;;;;;;;3.45;2.20;;;;;;;8.31;100.00;101297.22;5069592;28;20047;-81
2023/01/02 07:21:35;;;;;;;3.65;2.45;;;;;;;8.41;100.00;101311.03;5070262;28;20380;-81
2023/01/02 07:24:00;;;;;;;5.90;2.40;;;;;;;8.34;100.00;101315.38;5071585;28;20535;-82
2023/01/02 07:26:27;;;;;;;4.75;2.53;;;;;;;8.38;100.00;101314.50;5066605;28;20112;-82
2023/01/02 07:28:52;;;;;;;5.47;3.10;;;;;;;8.43;100.00;101332.66;5066972;28;20034;-81
2023/01/02 07:31:19;;;;;;;5.70;3.53;;;;;;;8.47;100.00;101338.69;5057813;28;20103;-82
2023/01/02 07:33:45;;;;;;;6.40;3.53;;;;;;;8.42;100.00;101342.19;5067228;28;20349;-80
2023/01/02 07:36:13;;;;;;;6.82;3.90;;;;;;;8.42;100.00;101354.31;5071591;28;20078;-81
2023/01/02 07:38:38;;;;;;;9.48;4.10;;;;;;;8.35;100.00;101344.81;5067508;28;20032;-81
2023/01/02 07:41:12;;;;;;;9.02;4.68;;;;;;;8.37;100.00;101359.53;5067212;28;20025;-80
2023/01/02 07:43:37;;;;;;;9.30;5.47;;;;;;;8.33;100.00;101352.59;5074686;28;20028;-81
2023/01/02 07:46:03;;;;;;;14.63;5.97;;;;;;;8.38;100.00;101368.19;5070513;28;20028;-80
2023/01/02 07:48:30;;;;;;;11.18;6.28;;;;;;;8.35;100.00;101375.97;5067959;28;20028;-81
2023/01/02 07:51:00;;;;;;;12.18;6.03;;;;;;;8.34;100.00;101382.06;5065768;28;20064;-81
2023/01/02 07:53:25;;;;;;;11.98;6.50;;;;;;;8.32;100.00;101382.06;5056237;28;20025;-80
2023/01/02 07:55:55;;;;;;;14.23;7.20;;;;;;;8.34;100.00;101389.84;5072239;28;20511;-79
2023/01/02 07:58:20;;;;;;;16.60;8.00;;;;;;;8.39;100.00;101401.09;5072261;28;20476;-80
2023/01/02 08:00:46;;;;;;;19.25;9.77;;;;;;;8.33;100.00;101398.50;5061719;28;20078;-79
2023/01/02 08:03:11;;;;;;;20.20;9.63;;;;;;;8.28;100.00;101414.13;5067840;28;20020;-81
2023/01/02 08:05:36;;;;;;;18.80;10.18;;;;;;;8.28;100.00;101423.66;5061666;28;20048;-79
2023/01/02 08:08:02;;;;;;;19.73;10.77;;;;;;;8.16;100.00;101424.56;5065459;28;20025;-80
2023/01/02 08:10:27;;;;;;;21.00;11.10;;;;;;;8.12;100.00;101433.25;5064699;28;20028;-79
2023/01/02 08:12:52;;;;;;;21.05;11.30;;;;;;;8.14;100.00;101441.88;5064334;28;20060;-81
2023/01/02 08:15:18;;;;;;;20.58;10.90;;;;;;;8.02;100.00;101439.34;5071009;28;20024;-81
2023/01/02 08:17:43;;;;;;;20.52;10.82;;;;;;;8.02;100.00;101453.19;5063281;28;20101;-82
2023/01/02 08:20:09;;;;;;;21.88;11.27;;;;;;;7.94;100.00;101455.78;5067658;28;20107;-82
2023/01/02 08:22:35;;;;;;;20.83;12.23;;;;;;;7.96;100.00;101450.59;5066638;28;20097;-80
2023/01/02 08:25:00;;;;;;;23.38;12.18;;;;;;;7.96;100.00;101458.38;5070651;28;20507;-82
2023/01/02 08:27:26;;;;;;;21.13;11.50;;;;;;;7.93;100.00;101463.59;5070305;28;20464;-82
2023/01/02 08:29:51;;;;;;;19.67;10.77;;;;;;;7.92;100.00;101467.91;5066254;28;20155;-82
2023/01/02 08:32:16;;;;;;;20.95;11.45;;;;;;;7.83;100.00;101454.97;5081298;28;20387;-82
2023/01/02 08:34:43;;;;;;;19.30;10.75;;;;;;;7.83;100.00;101465.34;5069631;28;20036;-82
2023/01/02 08:37:08;;;;;;;20.42;10.50;;;;;;;7.75;100.00;101459.31;5059659;28;20051;-82
2023/01/02 08:39:34;;;;;;;22.30;10.52;;;;;;;7.77;100.00;101467.94;5065210;28;20029;-82
2023/01/02 08:41:59;;;;;;;19.00;10.57;;;;;;;7.73;100.00;101480.06;5064808;28;20466;-82
2023/01/02 08:44:24;;;;;;;21.70;10.70;;;;;;;7.68;100.00;101468.84;5067573;28;20119;-80
2023/01/02 08:46:50;;;;;;;22.65;10.68;;;;;;;7.78;100.00;101497.34;5063883;28;20468;-81
2023/01/02 08:49:15;;;;;;;19.35;10.68;;;;;;;7.74;100.00;101484.38;5064356;28;20035;-81
2023/01/02 08:51:40;;;;;;;18.40;10.23;;;;;;;7.74;100.00;101492.16;5073007;28;20028;-81
2023/01/02 08:54:05;;;;;;;19.88;10.77;;;;;;;7.65;100.00;101489.59;5071145;28;20464;-81
2023/01/02 08:56:32;;;;;;;20.00;10.13;;;;;;;7.68;100.00;101512.97;5071044;28;20464;-80
2023/01/02 08:59:00;;;;;;;20.02;9.82;;;;;;;7.72;100.00;101517.28;5060210;28;20468;-81
2023/01/02 09:01:27;;;;;;;21.90;10.43;;;;;;;7.74;100.00;101520.72;5066676;28;20461;-81
2023/01/02 09:03:53;;;;;;;19.25;10.32;;;;;;;7.64;100.00;101508.63;5065072;28;20020;-81
2023/01/02 09:06:20;;;;;;;17.10;9.23;;;;;;;7.70;100.00;101524.19;5067288;28;20128;-80
2023/01/02 09:08:45;;;;;;;15.35;8.82;;;;;;;7.67;100.00;101513.81;5068068;28;20050;-81
2023/01/02 09:11:13;;;;;;;16.30;8.20;;;;;;;7.69;100.00;101527.66;5064725;28;20475;-81
2023/01/02 09:13:38;;;;;;;13.35;8.23;;;;;;;7.65;100.00;101538.03;5060765;28;20039;-81
2023/01/02 09:16:04;;;;;;;16.25;8.38;;;;;;;7.67;100.00;101542.34;5061977;28;20021;-80
2023/01/02 09:18:29;;;;;;;16.77;8.07;;;;;;;7.65;100.00;101544.09;5067637;28;20039;-81
2023/01/02 09:20:55;;;;;;;17.42;8.32;;;;;;;7.58;100.00;101544.94;5067646;28;20033;-81
2023/01/02 09:23:20;;;;;;;15.38;8.15;;;;;;;7.51;100.00;101533.69;5060528;28;20108;-81
2023/01/02 09:25:45;;;;;;;14.77;7.45;;;;;;;7.67;100.00;101572.63;5057393;28;20024;-81
2023/01/02 09:28:10;;;;;;;14.00;8.13;;;;;;;7.56;100.00;101557.06;5061548;28;20556;-80
2023/01/02 09:30:36;;;;;;;14.80;8.48;;;;;;;7.57;100.00;101558.78;5060993;28;20054;-81
2023/01/02 09:33:01;;;;;;;15.93;8.23;;;;;;;7.60;100.00;101571.78;5066345;28;20044;-80
2023/01/02 09:35:26;;;;;;;19.63;9.40;;;;;;;7.66;100.00;101571.78;5071554;28;20567;-80
2023/01/02 09:37:51;;;;;;;19.17;8.55;;;;;;;7.70;100.00;101585.63;5071237;28;20369;-80
2023/01/02 09:40:17;;;;;;;17.30;8.65;;;;;;;7.75;100.00;101583.91;5070799;28;20073;-79
2023/01/02 09:42:43;;;;;;;18.67;9.60;;;;;;;7.83;100.00;101584.75;5070130;28;20028;-79
2023/01/02 09:45:10;;;;;;;16.65;9.50;;;;;;;7.81;100.00;101580.41;5070023;28;20025;-79
2023/01/02 09:47:38;;;;;;;17.75;9.38;;;;;;;7.87;100.00;101596.84;5072388;28;20025;-80
2023/01/02 09:50:09;;;;;;;20.02;10.30;;;;;;;7.88;100.00;101589.94;5072103;28;20028;-79
2023/01/02 09:52:39;;;;;;;20.50;9.93;;;;;;;7.94;100.00;101600.31;5071436;28;20032;-80
2023/01/02 09:55:18;;;;;;;17.02;9.57;;;;;;;7.91;100.00;101606.41;5071874;28;20061;-80
2023/01/02 09:58:09;;;;;;;19.88;10.30;;;;;;;7.82;100.00;101590.81;5072685;28;20028;-80
2023/01/02 10:00:37;;;;;;;18.67;10.15;;;;;;;7.91;100.00;101603.81;5075580;28;20029;-80
2023/01/02 10:03:39;;;;;;;17.30;9.90;;;;;;;7.88;100.00;101611.59;5075957;28;20052;-80
2023/01/02 10:06:04;;;;;;;15.48;9.65;;;;;;;7.90;100.00;101614.19;5075204;28;20068;-80
2023/01/02 10:08:49;;;;;;;18.42;10.45;;;;;;;7.97;100.00;101627.16;5075553;28;20024;-80
2023/01/02 10:11:25;;;;;;;18.85;9.95;;;;;;;8.03;100.00;101628.03;5075453;28;20066;-80
2023/01/02 10:14:10;;;;;;;18.10;9.70;;;;;;;7.87;100.00;101615.03;5074996;28;20472;-80
2023/01/02 10:16:40;;;;;;;17.38;9.95;;;;;;;7.93;100.00;101614.19;5075679;28;20059;-80
2023/01/02 10:19:14;;;;;;;20.73;10.50;;;;;;;8.05;100.00;101634.94;5075574;28;20024;-79
2023/01/02 10:21:41;;;;;;;19.15;9.85;;;;;;;7.97;100.00;101611.56;5075355;28;20056;-80
2023/01/02 10:24:16;;;;;;;18.30;10.40;;;;;;;8.05;100.00;101598.59;5075427;28;20076;-80
2023/01/02 10:26:46;;;;;;;20.85;10.70;;;;;;;8.16;100.00;101606.38;5075925;28;20098;-80
2023/01/02 10:29:27;;;;;;;18.73;9.68;;;;;;;8.16;100.00;101619.34;5074339;28;20623;-80
2023/01/02 10:32:04;;;;;;;22.02;10.00;;;;;;;8.24;100.00;101621.94;5063858;28;20052;-80
2023/01/02 10:34:39;;;;;;;18.27;9.55;;;;;;;8.18;100.00;101634.06;5068568;28;20033;-80
2023/01/02 10:37:11;;;;;;;18.75;9.40;;;;;;;8.12;100.00;101644.47;5070654;28;20119;-80
2023/01/02 10:39:37;;;;;;;16.50;9.23;;;;;;;8.08;100.00;101642.75;5068770;28;20028;-80
2023/01/02 10:42:03;;;;;;;18.05;9.88;;;;;;;8.07;100.00;101637.53;5072070;28;20380;-80
2023/01/02 10:44:34;;;;;;;18.65;9.93;;;;;;;8.05;100.00;101637.56;5070406;28;20033;-80
2023/01/02 10:47:25;;;;;;;21.60;10.68;;;;;;;8.11;100.00;101628.88;5071489;28;20024;-80
2023/01/02 10:49:51;;;;;;;17.65;10.85;;;;;;;8.07;100.00;101635.78;5059016;28;20033;-80
2023/01/02 10:52:23;;;;;;;16.50;9.68;;;;;;;8.04;100.00;101630.59;5068717;28;20365;-80
2023/01/02 10:54:54;;;;;;;20.98;11.80;;;;;;;8.18;100.00;101633.22;5060605;28;20040;-80
2023/01/02 10:57:37;;;;;;;18.25;10.68;;;;;;;8.17;100.00;101640.16;5063514;28;20385;-80
2023/01/02 11:00:03;;;;;;;23.00;12.07;;;;;;;8.23;100.00;101636.66;5067868;28;20360;-80
2023/01/02 11:02:39;;;;;;;23.75;12.75;;;;;;;8.32;100.00;101651.38;5064639;28;20024;-80
2023/01/02 11:05:07;;;;;;;19.92;12.30;;;;;;;8.32;100.00;101659.16;5072914;28;20479;-80
2023/01/02 11:07:36;;;;;;;22.10;12.77;;;;;;;8.31;100.00;101655.72;5072607;28;20036;-80
2023/01/02 11:10:03;;;;;;;21.88;13.23;;;;;;;8.36;100.00;101661.75;5071522;28;20029;-80
2023/01/02 11:12:28;;;;;;;21.27;13.52;;;;;;;8.35;100.00;101649.63;5069761;28;20028;-80
2023/01/02 11:15:11;;;;;;;22.75;12.98;;;;;;;8.43;100.00;101663.50;5068999;28;20192;-80
2023/01/02 11:17:41;;;;;;;22.00;12.93;;;;;;;8.29;100.00;101657.44;5069193;28;20017;-80
2023/01/02 11:20:23;;;;;;;23.52;12.98;;;;;;;8.29;100.00;101660.03;5067238;28;20028;-80
2023/01/02 11:22:50;;;;;;;20.33;12.77;;;;;;;8.34;100.00;101665.25;5062980;28;20032;-80
2023/01/02 11:25:22;;;;;;;20.83;13.13;;;;;;;8.31;100.00;101666.09;5072983;28;20017;-80